sensor_id;sensor_type;location;lat;lon;timestamp;pressure;altitude;pressure_sealevel;temperature;humidity
48800;BME280;34611;47.964;7.982;2023-01-31T00:02:37;97807.59;;;8.95;51.39
48800;BME280;34611;47.964;7.982;2023-01-31T00:09:37;97800.66;;;8.96;51.34
48800;BME280;34611;47.964;7.982;2023-01-31T00:16:38;97791.03;;;8.98;51.17
48800;BME280;34611;47.964;7.982;2023-01-31T00:23:38;97783.53;;;8.93;51.42
48800;BME280;34611;47.964;7.982;2023-01-31T00:30:39;97782.63;;;8.94;51.30
48800;BME280;34611;47.964;7.982;2023-01-31T00:37:39;97780.03;;;8.94;51.45
48800;BME280;34611;47.964;7.982;2023-01-31T00:44:40;97775.75;;;8.93;51.15
48800;BME280;34611;47.964;7.982;2023-01-31T00:51:40;97768.91;;;8.92;51.28
48800;BME280;34611;47.964;7.982;2023-01-31T00:58:41;97770.56;;;8.93;51.01
48800;BME280;34611;47.964;7.982;2023-01-31T01:05:41;97761.88;;;8.94;50.79
48800;BME280;34611;47.964;7.982;2023-01-31T01:12:42;97767.25;;;8.91;50.84
48800;BME280;34611;47.964;7.982;2023-01-31T01:19:42;97768.06;;;8.91;50.80
48800;BME280;34611;47.964;7.982;2023-01-31T01:26:42;97765.59;;;8.90;50.74
48800;BME280;34611;47.964;7.982;2023-01-31T01:33:43;97769.84;;;8.91;50.65
48800;BME280;34611;47.964;7.982;2023-01-31T01:40:44;97774.19;;;8.90;50.68
48800;BME280;34611;47.964;7.982;2023-01-31T01:47:48;97762.13;;;8.89;50.58
48800;BME280;34611;47.964;7.982;2023-01-31T01:54:52;97754.56;;;8.86;50.57
48800;BME280;34611;47.964;7.982;2023-01-31T02:01:54;97757.06;;;8.88;50.57
48800;BME280;34611;47.964;7.982;2023-01-31T02:08:55;97765.75;;;8.87;50.38
48800;BME280;34611;47.964;7.982;2023-01-31T02:15:56;97768.47;;;8.85;50.45
48800;BME280;34611;47.964;7.982;2023-01-31T02:37:17;97764.94;;;8.86;50.22
48800;BME280;34611;47.964;7.982;2023-01-31T02:51:47;97769.38;;;8.84;50.31
48800;BME280;34611;47.964;7.982;2023-01-31T02:59:17;97779.84;;;8.83;50.21
48800;BME280;34611;47.964;7.982;2023-01-31T03:13:42;97790.13;;;8.84;50.26
48800;BME280;34611;47.964;7.982;2023-01-31T03:20:52;97788.38;;;8.85;50.37
48800;BME280;34611;47.964;7.982;2023-01-31T03:27:56;97790.88;;;8.86;50.22
48800;BME280;34611;47.964;7.982;2023-01-31T03:34:59;97787.53;;;8.84;50.40
48800;BME280;34611;47.964;7.982;2023-01-31T03:42:03;97789.38;;;8.82;50.48
48800;BME280;34611;47.964;7.982;2023-01-31T03:49:09;97799.75;;;8.82;50.33
48800;BME280;34611;47.964;7.982;2023-01-31T03:56:15;97798.00;;;8.83;50.50
48800;BME280;34611;47.964;7.982;2023-01-31T04:03:22;97777.16;;;8.84;50.41
48800;BME280;34611;47.964;7.982;2023-01-31T04:10:23;97781.63;;;8.82;50.37
48800;BME280;34611;47.964;7.982;2023-01-31T04:17:25;97764.19;;;8.84;50.38
48800;BME280;34611;47.964;7.982;2023-01-31T04:24:25;97759.97;;;8.83;50.56
48800;BME280;34611;47.964;7.982;2023-01-31T04:31:25;97775.59;;;8.82;50.59
48800;BME280;34611;47.964;7.982;2023-01-31T04:38:25;97796.25;;;8.83;50.32
48800;BME280;34611;47.964;7.982;2023-01-31T04:45:26;97804.84;;;8.84;50.35
48800;BME280;34611;47.964;7.982;2023-01-31T04:52:26;97805.78;;;8.83;50.29
48800;BME280;34611;47.964;7.982;2023-01-31T04:59:26;97806.63;;;8.83;50.18
48800;BME280;34611;47.964;7.982;2023-01-31T05:06:27;97810.13;;;8.82;50.30
48800;BME280;34611;47.964;7.982;2023-01-31T05:13:27;97809.47;;;8.79;49.86
48800;BME280;34611;47.964;7.982;2023-01-31T05:20:35;97804.94;;;8.54;50.17
48800;BME280;34611;47.964;7.982;2023-01-31T05:27:37;97808.84;;;8.61;49.95
48800;BME280;34611;47.964;7.982;2023-01-31T05:34:37;97799.41;;;8.60;49.84
48800;BME280;34611;47.964;7.982;2023-01-31T05:41:37;97793.03;;;8.51;49.83
48800;BME280;34611;47.964;7.982;2023-01-31T05:48:38;97799.41;;;8.45;49.83
48800;BME280;34611;47.964;7.982;2023-01-31T05:55:38;97799.78;;;8.54;49.80
48800;BME280;34611;47.964;7.982;2023-01-31T06:02:39;97792.94;;;8.53;49.76
48800;BME280;34611;47.964;7.982;2023-01-31T06:09:39;97806.44;;;8.58;49.77
48800;BME280;34611;47.964;7.982;2023-01-31T06:16:40;97817.75;;;8.57;49.77
48800;BME280;34611;47.964;7.982;2023-01-31T06:23:41;97821.81;;;8.61;49.93
48800;BME280;34611;47.964;7.982;2023-01-31T06:30:45;97832.06;;;8.62;49.86
48800;BME280;34611;47.964;7.982;2023-01-31T06:37:45;97839.75;;;8.64;49.74
48800;BME280;34611;47.964;7.982;2023-01-31T06:44:45;97836.25;;;8.65;49.77
48800;BME280;34611;47.964;7.982;2023-01-31T06:51:46;97846.50;;;8.66;49.80
48800;BME280;34611;47.964;7.982;2023-01-31T06:58:46;97830.06;;;8.67;49.64
48800;BME280;34611;47.964;7.982;2023-01-31T07:05:46;97835.16;;;8.69;49.69
48800;BME280;34611;47.964;7.982;2023-01-31T07:12:47;97833.47;;;8.68;49.75
48800;BME280;34611;47.964;7.982;2023-01-31T07:19:47;97836.88;;;8.68;49.76
48800;BME280;34611;47.964;7.982;2023-01-31T07:26:50;97835.16;;;8.69;49.79
48800;BME280;34611;47.964;7.982;2023-01-31T07:33:51;97823.00;;;8.69;49.72
48800;BME280;34611;47.964;7.982;2023-01-31T07:40:51;97832.56;;;8.69;49.88
48800;BME280;34611;47.964;7.982;2023-01-31T07:47:52;97857.63;;;8.68;49.62
48800;BME280;34611;47.964;7.982;2023-01-31T07:54:52;97856.25;;;8.63;49.58
48800;BME280;34611;47.964;7.982;2023-01-31T08:01:52;97851.06;;;8.63;49.69
48800;BME280;34611;47.964;7.982;2023-01-31T08:09:12;97855.41;;;8.62;49.59
48800;BME280;34611;47.964;7.982;2023-01-31T08:16:13;97857.00;;;8.65;49.52
48800;BME280;34611;47.964;7.982;2023-01-31T08:23:13;97873.66;;;8.61;49.54
48800;BME280;34611;47.964;7.982;2023-01-31T08:30:13;97877.72;;;8.65;49.48
48800;BME280;34611;47.964;7.982;2023-01-31T08:37:14;97873.16;;;8.68;49.61
48800;BME280;34611;47.964;7.982;2023-01-31T08:44:14;97873.09;;;8.70;49.72
48800;BME280;34611;47.964;7.982;2023-01-31T08:51:14;97857.72;;;8.67;49.79
48800;BME280;34611;47.964;7.982;2023-01-31T08:58:15;97848.09;;;8.69;49.74
48800;BME280;34611;47.964;7.982;2023-01-31T09:05:15;97839.47;;;8.68;49.61
48800;BME280;34611;47.964;7.982;2023-01-31T09:12:15;97833.31;;;8.71;49.80
48800;BME280;34611;47.964;7.982;2023-01-31T09:19:15;97848.66;;;8.74;49.66
48800;BME280;34611;47.964;7.982;2023-01-31T09:26:16;97846.06;;;8.74;49.77
48800;BME280;34611;47.964;7.982;2023-01-31T09:33:16;97846.88;;;8.75;49.87
48800;BME280;34611;47.964;7.982;2023-01-31T09:40:20;97838.28;;;8.74;49.93
48800;BME280;34611;47.964;7.982;2023-01-31T09:47:26;97829.59;;;8.75;49.86
48800;BME280;34611;47.964;7.982;2023-01-31T09:54:29;97828.75;;;8.75;49.78
48800;BME280;34611;47.964;7.982;2023-01-31T10:08:58;97829.69;;;8.74;49.91
48800;BME280;34611;47.964;7.982;2023-01-31T10:16:01;97826.06;;;8.76;49.72
48800;BME280;34611;47.964;7.982;2023-01-31T10:23:03;97840.97;;;8.73;49.76
48800;BME280;34611;47.964;7.982;2023-01-31T10:30:06;97847.00;;;8.73;49.87
48800;BME280;34611;47.964;7.982;2023-01-31T10:37:14;97845.88;;;8.77;49.72
48800;BME280;34611;47.964;7.982;2023-01-31T10:44:23;97841.63;;;8.76;49.87
48800;BME280;34611;47.964;7.982;2023-01-31T10:51:29;97824.22;;;8.78;50.07
48800;BME280;34611;47.964;7.982;2023-01-31T10:58:31;97811.16;;;8.80;50.10
48800;BME280;34611;47.964;7.982;2023-01-31T11:05:31;97808.75;;;8.77;50.13
48800;BME280;34611;47.964;7.982;2023-01-31T11:12:41;97818.00;;;8.81;50.21
48800;BME280;34611;47.964;7.982;2023-01-31T11:19:54;97818.28;;;8.76;50.24
48800;BME280;34611;47.964;7.982;2023-01-31T11:27:02;97799.59;;;8.85;50.33
48800;BME280;34611;47.964;7.982;2023-01-31T11:34:04;97802.94;;;8.73;50.00
48800;BME280;34611;47.964;7.982;2023-01-31T11:48:24;97815.69;;;8.90;50.28
48800;BME280;34611;47.964;7.982;2023-01-31T11:55:26;97801.97;;;8.88;50.34
48800;BME280;34611;47.964;7.982;2023-01-31T12:02:37;97795.03;;;8.89;50.55
48800;BME280;34611;47.964;7.982;2023-01-31T12:09:42;97797.44;;;8.92;50.74
48800;BME280;34611;47.964;7.982;2023-01-31T12:16:42;97774.72;;;8.96;50.49
48800;BME280;34611;47.964;7.982;2023-01-31T12:37:59;97731.75;;;8.91;50.62
48800;BME280;34611;47.964;7.982;2023-01-31T12:45:20;97733.75;;;8.88;50.36
48800;BME280;34611;47.964;7.982;2023-01-31T12:52:28;97723.38;;;8.88;50.15
48800;BME280;34611;47.964;7.982;2023-01-31T13:13:35;97717.88;;;8.93;50.38
48800;BME280;34611;47.964;7.982;2023-01-31T13:28:14;97710.41;;;8.88;50.50
48800;BME280;34611;47.964;7.982;2023-01-31T13:35:31;97727.69;;;8.87;50.03
48800;BME280;34611;47.964;7.982;2023-01-31T13:42:33;97703.44;;;8.88;50.26
48800;BME280;34611;47.964;7.982;2023-01-31T13:49:34;97704.09;;;8.92;50.18
48800;BME280;34611;47.964;7.982;2023-01-31T13:56:36;97696.41;;;8.90;50.13
48800;BME280;34611;47.964;7.982;2023-01-31T14:10:58;97669.53;;;8.91;50.41
48800;BME280;34611;47.964;7.982;2023-01-31T14:17:59;97677.31;;;8.91;50.38
48800;BME280;34611;47.964;7.982;2023-01-31T14:25:11;97668.72;;;8.91;50.47
48800;BME280;34611;47.964;7.982;2023-01-31T14:32:30;97679.91;;;8.91;50.48
48800;BME280;34611;47.964;7.982;2023-01-31T14:54:03;97659.88;;;8.94;50.31
48800;BME280;34611;47.964;7.982;2023-01-31T15:01:06;97653.16;;;8.91;50.30
48800;BME280;34611;47.964;7.982;2023-01-31T15:15:18;97664.16;;;8.95;50.06
48800;BME280;34611;47.964;7.982;2023-01-31T15:22:21;97666.94;;;8.91;50.26
48800;BME280;34611;47.964;7.982;2023-01-31T15:29:22;97673.06;;;8.90;50.27
48800;BME280;34611;47.964;7.982;2023-01-31T15:36:24;97666.13;;;8.91;50.21
48800;BME280;34611;47.964;7.982;2023-01-31T15:43:26;97639.38;;;8.90;50.13
48800;BME280;34611;47.964;7.982;2023-01-31T15:50:28;97640.28;;;8.89;50.24
48800;BME280;34611;47.964;7.982;2023-01-31T15:58:02;97653.25;;;8.89;50.18
48800;BME280;34611;47.964;7.982;2023-01-31T16:04:56;97623.06;;;8.88;49.99
48800;BME280;34611;47.964;7.982;2023-01-31T16:11:57;97622.84;;;8.91;50.34
48800;BME280;34611;47.964;7.982;2023-01-31T16:18:58;97617.66;;;8.91;50.19
48800;BME280;34611;47.964;7.982;2023-01-31T16:33:01;97647.06;;;8.92;50.12
48800;BME280;34611;47.964;7.982;2023-01-31T16:40:17;97669.09;;;8.85;49.98
48800;BME280;34611;47.964;7.982;2023-01-31T16:54:51;97689.28;;;8.94;50.12
48800;BME280;34611;47.964;7.982;2023-01-31T17:01:53;97709.16;;;8.94;50.29
48800;BME280;34611;47.964;7.982;2023-01-31T17:08:55;97731.38;;;8.98;50.27
48800;BME280;34611;47.964;7.982;2023-01-31T17:15:56;97754.53;;;9.01;50.28
48800;BME280;34611;47.964;7.982;2023-01-31T17:22:56;97752.03;;;8.99;50.42
48800;BME280;34611;47.964;7.982;2023-01-31T17:29:56;97750.91;;;9.03;50.63
48800;BME280;34611;47.964;7.982;2023-01-31T17:36:56;97741.97;;;8.95;50.71
48800;BME280;34611;47.964;7.982;2023-01-31T17:43:57;97736.38;;;9.01;50.60
48800;BME280;34611;47.964;7.982;2023-01-31T17:50:57;97719.34;;;8.97;50.79
48800;BME280;34611;47.964;7.982;2023-01-31T17:57:57;97719.06;;;9.01;50.79
48800;BME280;34611;47.964;7.982;2023-01-31T18:04:58;97726.94;;;9.00;50.78
48800;BME280;34611;47.964;7.982;2023-01-31T18:11:58;97735.56;;;9.00;50.95
48800;BME280;34611;47.964;7.982;2023-01-31T18:18:58;97739.06;;;8.99;50.82
48800;BME280;34611;47.964;7.982;2023-01-31T18:25:59;97751.13;;;9.00;50.77
48800;BME280;34611;47.964;7.982;2023-01-31T18:32:59;97756.31;;;9.00;50.72
48800;BME280;34611;47.964;7.982;2023-01-31T18:39:59;97756.19;;;9.02;50.74
48800;BME280;34611;47.964;7.982;2023-01-31T18:46:59;97751.00;;;9.02;50.87
48800;BME280;34611;47.964;7.982;2023-01-31T18:54:00;97731.72;;;9.06;50.77
48800;BME280;34611;47.964;7.982;2023-01-31T19:01:04;97732.03;;;9.01;50.92
48800;BME280;34611;47.964;7.982;2023-01-31T19:08:04;97745.53;;;9.06;50.78
48800;BME280;34611;47.964;7.982;2023-01-31T19:15:08;97754.34;;;9.04;50.98
48800;BME280;34611;47.964;7.982;2023-01-31T19:22:08;97753.50;;;9.03;50.86
48800;BME280;34611;47.964;7.982;2023-01-31T19:29:13;97739.63;;;9.04;50.98
48800;BME280;34611;47.964;7.982;2023-01-31T19:36:15;97722.59;;;9.00;50.92
48800;BME280;34611;47.964;7.982;2023-01-31T19:43:19;97723.72;;;8.96;50.88
48800;BME280;34611;47.964;7.982;2023-01-31T19:50:19;97719.34;;;8.97;51.09
48800;BME280;34611;47.964;7.982;2023-01-31T19:57:19;97711.66;;;8.95;50.98
48800;BME280;34611;47.964;7.982;2023-01-31T20:04:20;97715.19;;;8.94;50.89
48800;BME280;34611;47.964;7.982;2023-01-31T20:11:20;97731.59;;;8.95;50.81
48800;BME280;34611;47.964;7.982;2023-01-31T20:18:21;97722.78;;;8.97;50.87
48800;BME280;34611;47.964;7.982;2023-01-31T20:25:22;97723.72;;;8.96;51.02
48800;BME280;34611;47.964;7.982;2023-01-31T20:32:22;97715.00;;;8.97;51.08
48800;BME280;34611;47.964;7.982;2023-01-31T20:39:22;97713.34;;;8.96;51.15
48800;BME280;34611;47.964;7.982;2023-01-31T20:46:23;97707.16;;;8.84;51.11
48800;BME280;34611;47.964;7.982;2023-01-31T20:53:24;97705.69;;;8.80;51.12
48800;BME280;34611;47.964;7.982;2023-01-31T21:00:24;97703.31;;;8.77;51.23
48800;BME280;34611;47.964;7.982;2023-01-31T21:07:25;97709.50;;;8.75;51.27
48800;BME280;34611;47.964;7.982;2023-01-31T21:14:25;97696.44;;;8.76;51.10
48800;BME280;34611;47.964;7.982;2023-01-31T21:21:25;97688.66;;;8.76;51.20
48800;BME280;34611;47.964;7.982;2023-01-31T21:28:26;97707.84;;;8.74;51.33
48800;BME280;34611;47.964;7.982;2023-01-31T21:35:26;97704.28;;;8.89;51.13
48800;BME280;34611;47.964;7.982;2023-01-31T21:42:26;97696.50;;;8.89;51.26
48800;BME280;34611;47.964;7.982;2023-01-31T21:49:27;97694.94;;;8.86;51.21
48800;BME280;34611;47.964;7.982;2023-01-31T21:56:27;97684.34;;;8.89;51.31
48800;BME280;34611;47.964;7.982;2023-01-31T22:03:29;97673.06;;;8.90;51.35
48800;BME280;34611;47.964;7.982;2023-01-31T22:10:30;97679.91;;;8.91;51.34
48800;BME280;34611;47.964;7.982;2023-01-31T22:17:30;97673.06;;;8.90;51.64
48800;BME280;34611;47.964;7.982;2023-01-31T22:24:30;97672.44;;;8.87;51.51
48800;BME280;34611;47.964;7.982;2023-01-31T22:31:31;97660.00;;;8.92;51.44
48800;BME280;34611;47.964;7.982;2023-01-31T22:38:31;97637.59;;;8.91;51.63
48800;BME280;34611;47.964;7.982;2023-01-31T22:45:31;97622.84;;;8.91;51.51
48800;BME280;34611;47.964;7.982;2023-01-31T22:52:31;97614.16;;;8.93;51.58
48800;BME280;34611;47.964;7.982;2023-01-31T22:59:32;97607.63;;;9.00;51.36
48800;BME280;34611;47.964;7.982;2023-01-31T23:06:32;97609.31;;;9.01;51.36
48800;BME280;34611;47.964;7.982;2023-01-31T23:13:33;97622.69;;;8.95;51.55
48800;BME280;34611;47.964;7.982;2023-01-31T23:20:34;97628.25;;;8.88;51.82
48800;BME280;34611;47.964;7.982;2023-01-31T23:27:34;97646.50;;;8.87;51.73
48800;BME280;34611;47.964;7.982;2023-01-31T23:34:35;97636.94;;;8.87;51.69
48800;BME280;34611;47.964;7.982;2023-01-31T23:41:35;97625.03;;;8.85;51.86
48800;BME280;34611;47.964;7.982;2023-01-31T23:48:35;97624.09;;;8.86;51.92
48800;BME280;34611;47.964;7.982;2023-01-31T23:55:38;97625.13;;;8.83;51.91
